Time;durP1;ratioP1;P1;durP2;ratioP2;P2;SDS_P1;SDS_P2;PMS_P1;PMS_P2;Temp;Humidity;BMP_temperature;BMP_pressure;BME280_temperature;BME280_humidity;BME280_pressure;Samples;Min_cycle;Max_cycle;Signal;HPM_P1;HPM_P2
2022/09/18 00:00:43;;;;;;;0.95;0.52;;;;;;;;;;4774434;30;20044;-73
2022/09/18 00:03:10;;;;;;;2.38;0.60;;;;;;;;;;4774200;30;20048;-73
2022/09/18 00:05:37;;;;;;;5.25;0.70;;;;;;;;;;4774305;30;20071;-73
2022/09/18 00:08:03;;;;;;;0.98;0.50;;;;;;;;;;4774347;30;20138;-73
2022/09/18 00:10:30;;;;;;;6.93;0.93;;;;;;;;;;4774012;30;20048;-73
2022/09/18 00:12:56;;;;;;;3.70;0.60;;;;;;;;;;4774826;30;20054;-73
2022/09/18 00:15:22;;;;;;;1.40;0.52;;;;;;;;;;4774208;30;20113;-73
2022/09/18 00:17:48;;;;;;;2.17;2.00;;;;;;;;;;4774112;30;20082;-73
2022/09/18 00:20:14;;;;;;;5.63;1.20;;;;;;;;;;4774129;30;20048;-73
2022/09/18 00:22:40;;;;;;;2.47;0.80;;;;;;;;;;4773669;30;20113;-73
2022/09/18 00:25:07;;;;;;;1.05;0.40;;;;;;;;;;4773912;30;20051;-73
2022/09/18 00:27:33;;;;;;;1.67;0.55;;;;;;;;;;4773622;30;20071;-73
2022/09/18 00:29:59;;;;;;;2.17;0.65;;;;;;;;;;4774238;30;20039;-73
2022/09/18 00:32:26;;;;;;;1.58;0.70;;;;;;;;;;4774117;30;20131;-73
2022/09/18 00:34:52;;;;;;;2.17;0.75;;;;;;;;;;4773913;30;20052;-73
2022/09/18 00:37:18;;;;;;;2.70;0.90;;;;;;;;;;4773446;30;20079;-73
2022/09/18 00:39:44;;;;;;;1.88;0.57;;;;;;;;;;4773726;30;20500;-73
2022/09/18 00:42:13;;;;;;;1.55;0.60;;;;;;;;;;4773790;30;20059;-73
2022/09/18 00:44:40;;;;;;;2.17;0.63;;;;;;;;;;4773473;30;20043;-74
2022/09/18 00:47:10;;;;;;;2.63;0.60;;;;;;;;;;4773810;30;20044;-73
2022/09/18 00:49:41;;;;;;;2.75;0.70;;;;;;;;;;4773648;30;20056;-73
2022/09/18 00:52:08;;;;;;;2.40;0.55;;;;;;;;;;4773501;30;20074;-73
2022/09/18 00:54:37;;;;;;;0.90;0.90;;;;;;;;;;4773281;30;20056;-73
2022/09/18 00:57:14;;;;;;;1.48;0.60;;;;;;;;;;4773564;30;20055;-73
2022/09/18 00:59:41;;;;;;;1.08;0.80;;;;;;;;;;4773522;30;20095;-73
2022/09/18 01:02:07;;;;;;;3.65;0.98;;;;;;;;;;4773730;30;20052;-73
2022/09/18 01:04:34;;;;;;;0.85;0.50;;;;;;;;;;4773594;30;20077;-73
2022/09/18 01:07:00;;;;;;;3.00;1.63;;;;;;;;;;4772940;30;20252;-73
2022/09/18 01:09:26;;;;;;;1.90;0.60;;;;;;;;;;4772052;30;20043;-73
2022/09/18 01:12:00;;;;;;;3.00;0.50;;;;;;;;;;4773355;30;20039;-73
2022/09/18 01:14:52;;;;;;;0.98;0.45;;;;;;;;;;4773530;30;20497;-73
2022/09/18 01:17:25;;;;;;;1.02;0.63;;;;;;;;;;4772945;30;20044;-73
2022/09/18 01:19:52;;;;;;;1.50;0.52;;;;;;;;;;4773324;30;20055;-73
2022/09/18 01:22:30;;;;;;;1.25;0.73;;;;;;;;;;4772617;30;20075;-73
2022/09/18 01:25:02;;;;;;;2.28;0.45;;;;;;;;;;4773221;30;20067;-73
2022/09/18 01:27:37;;;;;;;0.90;0.57;;;;;;;;;;4772677;30;20456;-73
2022/09/18 01:30:05;;;;;;;1.75;0.93;;;;;;;;;;4773467;30;20050;-73
2022/09/18 01:32:35;;;;;;;2.85;0.50;;;;;;;;;;4773058;30;20048;-73
2022/09/18 01:35:08;;;;;;;2.95;0.60;;;;;;;;;;4772831;30;20047;-73
2022/09/18 01:37:49;;;;;;;0.93;0.40;;;;;;;;;;4771985;30;20123;-73
2022/09/18 01:40:19;;;;;;;1.90;0.50;;;;;;;;;;4773240;30;20075;-73
2022/09/18 01:42:47;;;;;;;1.27;0.55;;;;;;;;;;4773301;30;20056;-73
2022/09/18 01:45:15;;;;;;;0.85;0.40;;;;;;;;;;4772476;30;20056;-73
2022/09/18 01:47:47;;;;;;;4.10;0.70;;;;;;;;;;4772478;30;20048;-73
2022/09/18 01:50:14;;;;;;;1.20;0.50;;;;;;;;;;4772307;30;20044;-73
2022/09/18 01:53:02;;;;;;;1.60;0.50;;;;;;;;;;4772551;30;20056;-73
2022/09/18 01:55:29;;;;;;;3.95;0.60;;;;;;;;;;4772736;30;20056;-74
2022/09/18 01:58:19;;;;;;;1.65;0.77;;;;;;;;;;4772458;30;20055;-73
2022/09/18 02:00:57;;;;;;;1.35;0.50;;;;;;;;;;4772413;30;20163;-73
2022/09/18 02:03:29;;;;;;;2.25;0.88;;;;;;;;;;4772437;30;20496;-73
2022/09/18 02:05:59;;;;;;;1.45;0.57;;;;;;;;;;4772327;30;20492;-73
2022/09/18 02:08:28;;;;;;;1.75;0.45;;;;;;;;;;4771873;30;20051;-74
2022/09/18 02:10:56;;;;;;;0.75;0.40;;;;;;;;;;4771990;30;20043;-73
2022/09/18 02:13:25;;;;;;;1.83;0.40;;;;;;;;;;4772273;30;20052;-73
2022/09/18 02:15:55;;;;;;;2.20;0.50;;;;;;;;;;4771923;30;20048;-73
2022/09/18 02:18:25;;;;;;;2.38;0.50;;;;;;;;;;4771831;30;20047;-73
2022/09/18 02:20:51;;;;;;;1.08;0.60;;;;;;;;;;4771755;30;20047;-74
2022/09/18 02:23:18;;;;;;;2.88;0.52;;;;;;;;;;4772277;30;20055;-73
2022/09/18 02:25:49;;;;;;;2.67;0.65;;;;;;;;;;4771779;30;20051;-73
2022/09/18 02:28:17;;;;;;;2.15;0.80;;;;;;;;;;4771530;30;20079;-73
2022/09/18 02:30:43;;;;;;;2.53;0.60;;;;;;;;;;4771483;30;20052;-73
2022/09/18 02:33:29;;;;;;;1.13;0.57;;;;;;;;;;4771744;30;20524;-73
2022/09/18 02:36:14;;;;;;;1.17;0.50;;;;;;;;;;4771672;30;20052;-73
2022/09/18 02:38:49;;;;;;;3.38;0.52;;;;;;;;;;4771608;30;20066;-73
2022/09/18 02:41:15;;;;;;;1.70;0.65;;;;;;;;;;4771776;30;20504;-73
2022/09/18 02:43:48;;;;;;;2.10;0.40;;;;;;;;;;4771281;30;20048;-73
2022/09/18 02:46:26;;;;;;;1.35;0.50;;;;;;;;;;4772050;30;20087;-74
2022/09/18 02:48:58;;;;;;;1.25;0.45;;;;;;;;;;4772018;30;20047;-73
2022/09/18 02:51:24;;;;;;;2.45;0.60;;;;;;;;;;4771415;30;20057;-73
2022/09/18 02:53:58;;;;;;;1.13;0.40;;;;;;;;;;4771768;30;20066;-73
2022/09/18 02:56:31;;;;;;;4.68;0.70;;;;;;;;;;4771478;30;20539;-73
2022/09/18 02:59:02;;;;;;;2.05;0.50;;;;;;;;;;4771840;30;20062;-73
2022/09/18 03:01:29;;;;;;;0.80;0.50;;;;;;;;;;4771446;30;20055;-73
2022/09/18 03:03:55;;;;;;;1.17;0.60;;;;;;;;;;4771685;30;20131;-74
2022/09/18 03:06:21;;;;;;;2.13;0.50;;;;;;;;;;4771409;30;20077;-73
2022/09/18 03:08:48;;;;;;;0.55;0.55;;;;;;;;;;4771375;30;20139;-74
2022/09/18 03:11:14;;;;;;;1.75;0.63;;;;;;;;;;4771302;30;20067;-73
2022/09/18 03:13:41;;;;;;;2.40;0.50;;;;;;;;;;4771681;30;20043;-73
2022/09/18 03:16:07;;;;;;;2.08;0.50;;;;;;;;;;4771313;30;20047;-74
2022/09/18 03:18:33;;;;;;;2.47;0.75;;;;;;;;;;4771170;30;20063;-73
2022/09/18 03:20:59;;;;;;;2.15;0.82;;;;;;;;;;4770421;30;20502;-73
2022/09/18 03:23:25;;;;;;;1.25;0.57;;;;;;;;;;4771506;30;20127;-73
2022/09/18 03:25:51;;;;;;;2.60;0.65;;;;;;;;;;4771394;30;20051;-74
2022/09/18 03:28:18;;;;;;;1.13;0.60;;;;;;;;;;4771481;30;20285;-74
2022/09/18 03:30:44;;;;;;;2.10;0.70;;;;;;;;;;4771628;30;20043;-73
2022/09/18 03:33:10;;;;;;;2.28;0.57;;;;;;;;;;4771772;30;20206;-73
2022/09/18 03:35:37;;;;;;;4.05;0.70;;;;;;;;;;4771143;30;20102;-73
2022/09/18 03:38:03;;;;;;;1.30;0.43;;;;;;;;;;4771191;30;20504;-74
2022/09/18 03:40:29;;;;;;;1.27;0.50;;;;;;;;;;4771047;30;20361;-73
2022/09/18 03:42:55;;;;;;;2.25;0.60;;;;;;;;;;4771929;30;20059;-73
2022/09/18 03:45:21;;;;;;;1.27;0.47;;;;;;;;;;4771056;30;20059;-73
2022/09/18 03:47:48;;;;;;;1.23;0.38;;;;;;;;;;4771579;30;20488;-73
2022/09/18 03:50:14;;;;;;;1.13;0.50;;;;;;;;;;4771300;30;20052;-73
2022/09/18 03:52:40;;;;;;;1.00;0.57;;;;;;;;;;4771003;30;20203;-73
2022/09/18 03:55:06;;;;;;;3.22;0.55;;;;;;;;;;4771782;30;20463;-73
2022/09/18 03:57:32;;;;;;;1.30;0.52;;;;;;;;;;4771273;30;20499;-73
2022/09/18 03:59:58;;;;;;;1.75;0.60;;;;;;;;;;4771168;30;20055;-73
2022/09/18 04:02:24;;;;;;;4.88;0.57;;;;;;;;;;4772697;30;20433;-73
2022/09/18 04:04:52;;;;;;;1.30;0.50;;;;;;;;;;4774395;30;20054;-74
2022/09/18 04:07:19;;;;;;;1.33;0.68;;;;;;;;;;4773926;30;20365;-73
2022/09/18 04:09:45;;;;;;;1.27;0.50;;;;;;;;;;4774598;30;20138;-73
2022/09/18 04:12:11;;;;;;;3.13;0.50;;;;;;;;;;4773064;30;20450;-73
2022/09/18 04:14:37;;;;;;;2.35;0.70;;;;;;;;;;4773983;30;20047;-73
2022/09/18 04:17:03;;;;;;;2.10;0.55;;;;;;;;;;4774270;30;20165;-73
2022/09/18 04:19:30;;;;;;;1.17;0.43;;;;;;;;;;4773846;30;20068;-73
2022/09/18 04:21:56;;;;;;;3.92;0.70;;;;;;;;;;4773706;30;20050;-73
2022/09/18 04:24:22;;;;;;;1.92;0.60;;;;;;;;;;4774112;30;20055;-73
2022/09/18 04:26:48;;;;;;;2.47;0.57;;;;;;;;;;4773737;30;20404;-73
2022/09/18 04:29:15;;;;;;;5.35;0.93;;;;;;;;;;4774204;30;20039;-73
2022/09/18 04:31:41;;;;;;;1.08;0.50;;;;;;;;;;4773405;30;20097;-73
2022/09/18 04:34:07;;;;;;;2.13;0.47;;;;;;;;;;4774161;30;20460;-73
2022/09/18 04:36:34;;;;;;;2.20;0.68;;;;;;;;;;4773534;30;20052;-73
2022/09/18 04:39:01;;;;;;;2.70;0.77;;;;;;;;;;4773427;30;20526;-73
2022/09/18 04:41:27;;;;;;;1.73;0.82;;;;;;;;;;4773525;30;20130;-73
2022/09/18 04:43:53;;;;;;;1.48;0.60;;;;;;;;;;4773772;30;20050;-73
2022/09/18 04:46:19;;;;;;;1.42;0.40;;;;;;;;;;4773081;30;20538;-73
2022/09/18 04:48:46;;;;;;;0.70;0.50;;;;;;;;;;4773408;30;20131;-74
2022/09/18 04:51:13;;;;;;;2.13;0.60;;;;;;;;;;4773449;30;20054;-73
2022/09/18 04:53:40;;;;;;;3.65;0.80;;;;;;;;;;4772429;30;20044;-73
2022/09/18 04:56:06;;;;;;;2.78;0.80;;;;;;;;;;4773670;30;20096;-73
2022/09/18 04:58:32;;;;;;;2.28;0.70;;;;;;;;;;4772875;30;20438;-73
2022/09/18 05:00:59;;;;;;;2.38;0.80;;;;;;;;;;4773261;30;20040;-73
2022/09/18 05:03:25;;;;;;;1.98;0.60;;;;;;;;;;4771966;30;20078;-73
2022/09/18 05:05:51;;;;;;;1.35;0.52;;;;;;;;;;4772501;30;20506;-73
2022/09/18 05:08:17;;;;;;;0.75;0.50;;;;;;;;;;4771215;30;20420;-74
2022/09/18 05:10:43;;;;;;;1.88;0.55;;;;;;;;;;4772965;30;20140;-76
2022/09/18 05:13:09;;;;;;;0.82;0.45;;;;;;;;;;4773526;30;20156;-76
2022/09/18 05:15:36;;;;;;;1.40;0.60;;;;;;;;;;4772620;30;20044;-74
2022/09/18 05:18:03;;;;;;;1.10;0.60;;;;;;;;;;4772591;30;20078;-74
2022/09/18 05:20:30;;;;;;;0.90;0.57;;;;;;;;;;4772094;30;20035;-74
2022/09/18 05:22:56;;;;;;;0.75;0.52;;;;;;;;;;4772323;30;20052;-75
2022/09/18 05:25:26;;;;;;;1.98;0.60;;;;;;;;;;4771830;30;20571;-72
2022/09/18 05:27:52;;;;;;;0.57;0.52;;;;;;;;;;4772183;30;20040;-73
2022/09/18 05:30:19;;;;;;;3.65;0.65;;;;;;;;;;4772668;30;20086;-73
2022/09/18 05:32:53;;;;;;;1.05;0.60;;;;;;;;;;4772682;30;20489;-73
2022/09/18 05:35:19;;;;;;;1.50;0.50;;;;;;;;;;4772482;30;20052;-73
2022/09/18 05:37:45;;;;;;;1.75;0.93;;;;;;;;;;4772265;30;20047;-73
2022/09/18 05:40:12;;;;;;;2.67;0.60;;;;;;;;;;4772257;30;20044;-73
2022/09/18 05:42:44;;;;;;;2.65;0.60;;;;;;;;;;4772852;30;20126;-73
2022/09/18 05:45:11;;;;;;;0.95;0.55;;;;;;;;;;4772214;30;20067;-73
2022/09/18 05:47:37;;;;;;;1.45;0.50;;;;;;;;;;4772806;30;20050;-73
2022/09/18 05:50:03;;;;;;;1.83;0.90;;;;;;;;;;4772631;30;20074;-73
2022/09/18 05:52:29;;;;;;;1.92;0.63;;;;;;;;;;4772822;30;20051;-73
2022/09/18 05:54:55;;;;;;;2.17;0.57;;;;;;;;;;4772292;30;20431;-73
2022/09/18 05:57:21;;;;;;;1.17;0.40;;;;;;;;;;4772264;30;20043;-73
2022/09/18 05:59:47;;;;;;;2.90;0.52;;;;;;;;;;4772426;30;20055;-73
2022/09/18 06:02:13;;;;;;;2.83;0.60;;;;;;;;;;4771995;30;20082;-73
2022/09/18 06:04:40;;;;;;;1.35;0.50;;;;;;;;;;4772422;30;20051;-73
2022/09/18 06:07:06;;;;;;;3.53;0.50;;;;;;;;;;4772126;30;20051;-73
2022/09/18 06:09:32;;;;;;;1.52;0.50;;;;;;;;;;4772839;30;20109;-73
2022/09/18 06:11:58;;;;;;;1.75;0.68;;;;;;;;;;4772440;30;20064;-73
2022/09/18 06:14:24;;;;;;;4.65;0.70;;;;;;;;;;4772213;30;20092;-73
2022/09/18 06:16:50;;;;;;;2.40;0.60;;;;;;;;;;4772236;30;20043;-73
2022/09/18 06:19:16;;;;;;;1.48;0.40;;;;;;;;;;4772158;30;20512;-73
2022/09/18 06:21:43;;;;;;;0.70;0.40;;;;;;;;;;4771636;30;20068;-73
2022/09/18 06:24:09;;;;;;;3.70;0.60;;;;;;;;;;4771877;30;20052;-73
2022/09/18 06:26:35;;;;;;;2.13;0.60;;;;;;;;;;4771769;30;20043;-73
2022/09/18 06:29:01;;;;;;;1.67;0.57;;;;;;;;;;4771776;30;20058;-73
2022/09/18 06:31:27;;;;;;;1.25;0.60;;;;;;;;;;4772304;30;20130;-73
2022/09/18 06:33:53;;;;;;;0.70;0.50;;;;;;;;;;4772280;30;20044;-73
2022/09/18 06:36:19;;;;;;;1.48;0.55;;;;;;;;;;4772221;30;20538;-73
2022/09/18 06:38:49;;;;;;;3.60;0.80;;;;;;;;;;4771698;30;20048;-73
2022/09/18 06:41:15;;;;;;;1.40;0.52;;;;;;;;;;4771229;30;20126;-73
2022/09/18 06:43:41;;;;;;;1.85;0.50;;;;;;;;;;4771602;30;20123;-73
2022/09/18 06:46:09;;;;;;;2.47;0.65;;;;;;;;;;4770441;30;20508;-73
2022/09/18 06:48:36;;;;;;;1.60;0.45;;;;;;;;;;4770720;30;20051;-72
2022/09/18 06:51:02;;;;;;;4.00;0.65;;;;;;;;;;4771545;30;20096;-73
2022/09/18 06:53:28;;;;;;;2.50;0.68;;;;;;;;;;4771649;30;20531;-73
2022/09/18 06:55:58;;;;;;;5.97;0.50;;;;;;;;;;4771777;30;20481;-73
2022/09/18 06:58:24;;;;;;;2.80;0.55;;;;;;;;;;4771396;30;20056;-73
2022/09/18 07:00:51;;;;;;;1.33;0.68;;;;;;;;;;4771721;30;20055;-73
2022/09/18 07:03:17;;;;;;;2.95;0.60;;;;;;;;;;4771670;30;20040;-73
2022/09/18 07:05:46;;;;;;;2.60;0.73;;;;;;;;;;4771182;30;20051;-73
2022/09/18 07:08:13;;;;;;;2.53;0.60;;;;;;;;;;4771178;30;20044;-73
2022/09/18 07:10:39;;;;;;;0.90;0.60;;;;;;;;;;4771352;30;20051;-73
2022/09/18 07:13:06;;;;;;;1.77;0.50;;;;;;;;;;4771702;30;20097;-73
2022/09/18 07:15:33;;;;;;;2.03;0.73;;;;;;;;;;4771296;30;20052;-73
2022/09/18 07:18:00;;;;;;;1.48;0.70;;;;;;;;;;4771491;30;20046;-72
2022/09/18 07:20:28;;;;;;;0.93;0.52;;;;;;;;;;4771286;30;20058;-73
2022/09/18 07:22:58;;;;;;;1.75;0.50;;;;;;;;;;4771232;30;20094;-72
2022/09/18 07:25:25;;;;;;;2.80;1.20;;;;;;;;;;4771789;30;20043;-72
2022/09/18 07:27:51;;;;;;;2.53;0.90;;;;;;;;;;4771662;30;20277;-73
2022/09/18 07:30:18;;;;;;;2.80;1.30;;;;;;;;;;4771623;30;20114;-73
2022/09/18 07:32:44;;;;;;;8.88;1.77;;;;;;;;;;4771547;30;20052;-72
2022/09/18 07:35:11;;;;;;;2.85;1.02;;;;;;;;;;4772299;30;20167;-73
2022/09/18 07:37:37;;;;;;;1.27;0.57;;;;;;;;;;4774424;30;20074;-72
2022/09/18 07:40:04;;;;;;;1.08;0.52;;;;;;;;;;4775019;30;20501;-73
2022/09/18 07:42:31;;;;;;;2.35;0.70;;;;;;;;;;4774298;30;20056;-73
2022/09/18 07:44:57;;;;;;;1.45;0.57;;;;;;;;;;4774352;30;20087;-73
2022/09/18 07:47:26;;;;;;;1.40;0.55;;;;;;;;;;4774040;30;20131;-74
2022/09/18 07:49:53;;;;;;;3.42;1.02;;;;;;;;;;4775294;30;20078;-73
2022/09/18 07:52:20;;;;;;;3.45;0.80;;;;;;;;;;4772916;30;20052;-73
2022/09/18 07:54:46;;;;;;;4.00;0.77;;;;;;;;;;4773690;30;20043;-72
2022/09/18 07:57:12;;;;;;;0.88;0.40;;;;;;;;;;4773306;30;20055;-72
2022/09/18 07:59:38;;;;;;;0.80;0.43;;;;;;;;;;4774075;30;20085;-72
2022/09/18 08:02:04;;;;;;;3.35;1.17;;;;;;;;;;4773898;30;20508;-72
2022/09/18 08:04:31;;;;;;;1.90;0.50;;;;;;;;;;4773548;30;20057;-75
2022/09/18 08:07:02;;;;;;;0.90;0.50;;;;;;;;;;4774220;30;20070;-71
2022/09/18 08:09:28;;;;;;;1.25;0.52;;;;;;;;;;4773233;30;20086;-72
2022/09/18 08:11:55;;;;;;;2.47;0.50;;;;;;;;;;4773394;30;20055;-72
2022/09/18 08:14:21;;;;;;;3.22;0.52;;;;;;;;;;4772419;30;20051;-72
2022/09/18 08:16:47;;;;;;;1.23;0.57;;;;;;;;;;4769751;30;20047;-72
2022/09/18 08:19:13;;;;;;;1.50;0.55;;;;;;;;;;4769623;30;20135;-71
2022/09/18 08:21:39;;;;;;;3.22;0.63;;;;;;;;;;4769245;30;20052;-70
2022/09/18 08:24:05;;;;;;;2.08;0.50;;;;;;;;;;4773142;30;20047;-70
2022/09/18 08:26:34;;;;;;;0.70;0.30;;;;;;;;;;4772299;30;20138;-70
2022/09/18 08:29:00;;;;;;;0.88;0.50;;;;;;;;;;4773096;30;20055;-70
2022/09/18 08:31:27;;;;;;;2.17;0.63;;;;;;;;;;4773049;30;20120;-70
2022/09/18 08:33:54;;;;;;;3.00;0.70;;;;;;;;;;4772881;30;20055;-70
2022/09/18 08:36:20;;;;;;;2.17;0.70;;;;;;;;;;4772403;30;20039;-68
2022/09/18 08:38:46;;;;;;;2.05;0.75;;;;;;;;;;4772986;30;20051;-70
2022/09/18 08:41:13;;;;;;;2.15;0.60;;;;;;;;;;4773060;30;20209;-71
2022/09/18 08:43:39;;;;;;;0.93;0.57;;;;;;;;;;4772492;30;20079;-74
2022/09/18 08:46:08;;;;;;;2.13;0.73;;;;;;;;;;4770889;30;20063;-72
2022/09/18 08:48:37;;;;;;;1.27;0.45;;;;;;;;;;4770885;30;20532;-71
2022/09/18 08:51:15;;;;;;;1.48;0.88;;;;;;;;;;4772404;30;20047;-70
2022/09/18 08:53:44;;;;;;;1.73;0.50;;;;;;;;;;4771511;30;20373;-68
2022/09/18 08:56:16;;;;;;;1.00;0.50;;;;;;;;;;4772366;30;20159;-68
2022/09/18 08:59:08;;;;;;;1.10;0.40;;;;;;;;;;4769325;30;20124;-70
2022/09/18 09:01:41;;;;;;;0.98;0.50;;;;;;;;;;4784029;29;20105;-70
2022/09/18 09:04:13;;;;;;;1.23;0.60;;;;;;;;;;4771671;30;20052;-70
2022/09/18 09:06:52;;;;;;;2.15;0.50;;;;;;;;;;4769650;30;20051;-70
2022/09/18 09:09:36;;;;;;;2.33;0.77;;;;;;;;;;4768772;30;20059;-70
2022/09/18 09:12:06;;;;;;;0.73;0.40;;;;;;;;;;4770736;30;20093;-70
2022/09/18 09:14:40;;;;;;;2.85;0.60;;;;;;;;;;4772239;30;20054;-70
2022/09/18 09:17:16;;;;;;;1.55;0.60;;;;;;;;;;4772304;30;20051;-70
2022/09/18 09:20:15;;;;;;;2.78;0.80;;;;;;;;;;4772542;30;20055;-68
2022/09/18 09:22:49;;;;;;;2.95;0.75;;;;;;;;;;4770185;30;20128;-70
2022/09/18 09:25:35;;;;;;;1.75;0.63;;;;;;;;;;4771072;30;20052;-70
2022/09/18 09:28:09;;;;;;;1.48;0.82;;;;;;;;;;4768896;30;20538;-68
2022/09/18 09:30:36;;;;;;;1.50;0.85;;;;;;;;;;4771591;30;20078;-70
2022/09/18 09:33:26;;;;;;;3.78;1.05;;;;;;;;;;4771707;30;20125;-68
2022/09/18 09:36:01;;;;;;;1.58;0.68;;;;;;;;;;4776891;29;20047;-69
2022/09/18 09:38:37;;;;;;;1.05;0.60;;;;;;;;;;4771779;30;20090;-70
2022/09/18 09:41:12;;;;;;;1.15;0.50;;;;;;;;;;4771338;30;20054;-70
2022/09/18 09:43:57;;;;;;;2.17;0.75;;;;;;;;;;4773030;30;20051;-69
2022/09/18 09:46:35;;;;;;;3.05;0.60;;;;;;;;;;4764409;30;20055;-70
2022/09/18 09:49:10;;;;;;;4.80;0.60;;;;;;;;;;4770071;30;20055;-68
2022/09/18 09:51:47;;;;;;;1.17;0.63;;;;;;;;;;4770136;29;20163;-68
2022/09/18 09:54:13;;;;;;;2.72;0.60;;;;;;;;;;4770634;30;20040;-68
2022/09/18 09:56:51;;;;;;;3.45;1.35;;;;;;;;;;4769986;30;20132;-70
2022/09/18 09:59:24;;;;;;;1.75;0.80;;;;;;;;;;4770084;30;20060;-70
2022/09/18 10:01:55;;;;;;;3.17;1.33;;;;;;;;;;4770746;30;20048;-70
2022/09/18 10:04:43;;;;;;;1.77;0.70;;;;;;;;;;4769848;30;20146;-70
2022/09/18 10:07:09;;;;;;;3.78;1.00;;;;;;;;;;4769251;30;20058;-67
2022/09/18 10:09:48;;;;;;;8.13;2.60;;;;;;;;;;4771011;30;20051;-69
2022/09/18 10:12:14;;;;;;;4.95;1.70;;;;;;;;;;4770909;30;20126;-69
2022/09/18 10:14:42;;;;;;;2.75;1.00;;;;;;;;;;4771395;30;20040;-69
2022/09/18 10:17:09;;;;;;;3.72;1.38;;;;;;;;;;4770811;30;20044;-70
2022/09/18 10:19:38;;;;;;;1.95;1.13;;;;;;;;;;4771912;30;20052;-70
2022/09/18 10:22:06;;;;;;;4.53;1.80;;;;;;;;;;4771380;30;20416;-69
2022/09/18 10:24:36;;;;;;;4.03;0.95;;;;;;;;;;4771233;30;20074;-69
2022/09/18 10:27:08;;;;;;;4.35;1.20;;;;;;;;;;4771248;30;20044;-69
2022/09/18 10:29:35;;;;;;;1.50;1.10;;;;;;;;;;4770508;30;20051;-69
2022/09/18 10:32:01;;;;;;;2.33;0.93;;;;;;;;;;4771436;30;20109;-69
2022/09/18 10:34:31;;;;;;;1.98;0.70;;;;;;;;;;4769530;30;20044;-69
2022/09/18 10:36:57;;;;;;;2.53;0.82;;;;;;;;;;4769871;30;20065;-70
2022/09/18 10:39:30;;;;;;;3.08;0.98;;;;;;;;;;4768572;30;20584;-70
2022/09/18 10:42:06;;;;;;;5.38;2.00;;;;;;;;;;4769255;30;20048;-70
2022/09/18 10:44:36;;;;;;;2.28;1.02;;;;;;;;;;4770639;30;20043;-70
2022/09/18 10:47:05;;;;;;;4.05;0.95;;;;;;;;;;4769477;30;20044;-70
2022/09/18 10:49:34;;;;;;;1.67;0.90;;;;;;;;;;4770702;30;20504;-70
2022/09/18 10:52:14;;;;;;;3.67;0.80;;;;;;;;;;4769430;30;20052;-70
2022/09/18 10:54:56;;;;;;;4.15;0.60;;;;;;;;;;4769497;30;20048;-70
2022/09/18 10:57:25;;;;;;;1.25;0.70;;;;;;;;;;4769149;30;20206;-70
2022/09/18 10:59:51;;;;;;;2.53;0.90;;;;;;;;;;4769969;30;20071;-70
2022/09/18 11:02:19;;;;;;;1.20;0.77;;;;;;;;;;4770470;30;20047;-70
2022/09/18 11:04:48;;;;;;;1.92;0.88;;;;;;;;;;4769899;30;20193;-70
2022/09/18 11:07:15;;;;;;;2.25;0.93;;;;;;;;;;4768651;30;20044;-70
2022/09/18 11:09:41;;;;;;;0.98;0.70;;;;;;;;;;4769856;30;20047;-70
2022/09/18 11:12:34;;;;;;;4.78;0.90;;;;;;;;;;4776068;30;20047;-70
2022/09/18 11:15:02;;;;;;;1.52;0.82;;;;;;;;;;4772699;30;20105;-70
2022/09/18 11:17:31;;;;;;;0.77;0.77;;;;;;;;;;4773732;30;20056;-70
2022/09/18 11:19:58;;;;;;;2.05;1.02;;;;;;;;;;4773416;30;20048;-70
2022/09/18 11:22:35;;;;;;;2.20;0.80;;;;;;;;;;4773664;30;20081;-70
2022/09/18 11:25:19;;;;;;;2.67;0.82;;;;;;;;;;4770190;30;20087;-70
2022/09/18 11:27:50;;;;;;;3.05;1.00;;;;;;;;;;4767470;30;20932;-71
2022/09/18 11:30:16;;;;;;;;;;;;;;;;;;4770000;30;20057;-70
2022/09/18 11:32:45;;;;;;;1.92;0.70;;;;;;;;;;4772160;30;19920;-69
2022/09/18 11:35:19;;;;;;;3.15;1.13;;;;;;;;;;4772312;30;20056;-70
2022/09/18 11:37:45;;;;;;;2.05;1.08;;;;;;;;;;4770582;30;20504;-70
2022/09/18 11:40:17;;;;;;;4.53;2.17;;;;;;;;;;4773350;30;20063;-71
2022/09/18 11:42:45;;;;;;;2.83;1.45;;;;;;;;;;4773064;30;20052;-70
2022/09/18 11:45:14;;;;;;;3.28;1.33;;;;;;;;;;4772831;30;20056;-70
2022/09/18 11:48:01;;;;;;;1.27;0.90;;;;;;;;;;4768631;30;20174;-70
2022/09/18 11:50:31;;;;;;;3.20;1.50;;;;;;;;;;4774715;30;20082;-70
2022/09/18 11:53:00;;;;;;;1.73;0.90;;;;;;;;;;4772848;30;20050;-70
2022/09/18 11:55:48;;;;;;;1.17;0.82;;;;;;;;;;4771575;30;20044;-69
2022/09/18 11:58:24;;;;;;;2.78;0.90;;;;;;;;;;4768774;30;20054;-70
2022/09/18 12:00:53;;;;;;;1.55;1.02;;;;;;;;;;4765793;30;20424;-74
2022/09/18 12:03:30;;;;;;;3.38;1.05;;;;;;;;;;4772037;30;20040;-73
2022/09/18 12:05:56;;;;;;;3.50;1.23;;;;;;;;;;4772425;30;20130;-73
2022/09/18 12:08:44;;;;;;;2.63;0.90;;;;;;;;;;4772548;30;20504;-72
2022/09/18 12:11:13;;;;;;;1.38;0.98;;;;;;;;;;4771928;30;20059;-73
2022/09/18 12:13:48;;;;;;;2.60;1.15;;;;;;;;;;4791297;30;20053;-70
2022/09/18 12:16:20;;;;;;;2.00;1.00;;;;;;;;;;4772967;30;20119;-71
2022/09/18 12:19:05;;;;;;;2.80;0.90;;;;;;;;;;4777436;29;20105;-72
2022/09/18 12:21:40;;;;;;;1.30;0.90;;;;;;;;;;4766130;30;20056;-73
2022/09/18 12:24:16;;;;;;;1.63;1.02;;;;;;;;;;4772517;30;20047;-73
2022/09/18 12:26:53;;;;;;;1.92;1.02;;;;;;;;;;4772337;30;20043;-74
2022/09/18 12:29:20;;;;;;;2.97;0.80;;;;;;;;;;4772473;30;20067;-73
2022/09/18 12:31:58;;;;;;;1.27;0.90;;;;;;;;;;4772890;30;20082;-74
2022/09/18 12:34:25;;;;;;;4.38;1.15;;;;;;;;;;4770709;30;20067;-74
2022/09/18 12:37:11;;;;;;;2.75;1.25;;;;;;;;;;4771994;30;20062;-74
2022/09/18 12:39:56;;;;;;;4.60;1.92;;;;;;;;;;4769920;30;20164;-72
2022/09/18 12:42:37;;;;;;;4.22;1.55;;;;;;;;;;4772007;30;20515;-73
2022/09/18 12:45:03;;;;;;;;;;;;;;;;;;4770080;30;20129;-74
2022/09/18 12:47:48;;;;;;;3.15;1.30;;;;;;;;;;4772305;30;19914;-73
2022/09/18 12:50:22;;;;;;;2.58;1.40;;;;;;;;;;4770710;30;20421;-73
2022/09/18 12:52:49;;;;;;;3.22;1.95;;;;;;;;;;4770735;30;20052;-73
2022/09/18 12:55:21;;;;;;;3.65;1.80;;;;;;;;;;4769832;30;20126;-74
2022/09/18 12:57:55;;;;;;;2.55;1.50;;;;;;;;;;4772391;30;20051;-73
2022/09/18 13:00:23;;;;;;;2.17;1.30;;;;;;;;;;4754461;30;20060;-73
2022/09/18 13:02:52;;;;;;;3.95;1.67;;;;;;;;;;4753198;30;20059;-73
2022/09/18 13:05:21;;;;;;;2.90;1.58;;;;;;;;;;4754833;30;20139;-73
2022/09/18 13:08:11;;;;;;;4.65;1.60;;;;;;;;;;4752863;30;20528;-74
2022/09/18 13:10:44;;;;;;;1.67;1.50;;;;;;;;;;4758704;30;20052;-72
2022/09/18 13:13:33;;;;;;;3.20;1.67;;;;;;;;;;4754776;30;20258;-73
2022/09/18 13:16:18;;;;;;;3.50;1.90;;;;;;;;;;4754571;30;20048;-73
2022/09/18 13:18:50;;;;;;;3.67;1.73;;;;;;;;;;4754009;30;20056;-73
2022/09/18 13:21:27;;;;;;;4.30;1.80;;;;;;;;;;4754361;30;20056;-72
2022/09/18 13:23:54;;;;;;;3.53;2.40;;;;;;;;;;4754313;30;20502;-73
2022/09/18 13:26:22;;;;;;;2.60;1.73;;;;;;;;;;4754514;30;20048;-73
2022/09/18 13:28:52;;;;;;;3.67;1.52;;;;;;;;;;4753851;30;20111;-73
2022/09/18 13:31:22;;;;;;;3.33;1.77;;;;;;;;;;4754272;30;20074;-73
2022/09/18 13:33:50;;;;;;;2.47;1.70;;;;;;;;;;4753802;30;20127;-73
2022/09/18 13:36:36;;;;;;;3.17;1.83;;;;;;;;;;4753666;30;20040;-73
2022/09/18 13:39:05;;;;;;;3.30;1.92;;;;;;;;;;4754117;30;20087;-73
2022/09/18 13:41:44;;;;;;;2.50;1.55;;;;;;;;;;4753800;30;20062;-73
2022/09/18 13:44:30;;;;;;;4.45;1.60;;;;;;;;;;4753328;30;20611;-73
2022/09/18 13:47:13;;;;;;;3.85;1.92;;;;;;;;;;4754190;30;20126;-73
2022/09/18 13:49:47;;;;;;;3.10;1.50;;;;;;;;;;4753815;30;20054;-73
2022/09/18 13:52:30;;;;;;;3.28;1.58;;;;;;;;;;4753470;30;20078;-73
2022/09/18 13:55:00;;;;;;;4.72;1.83;;;;;;;;;;4753758;30;20040;-74
2022/09/18 13:57:33;;;;;;;2.30;1.70;;;;;;;;;;4761050;30;20079;-74
2022/09/18 14:00:01;;;;;;;3.30;1.73;;;;;;;;;;4771001;30;20055;-74
2022/09/18 14:02:29;;;;;;;4.45;1.83;;;;;;;;;;4771360;30;20051;-74
2022/09/18 14:05:04;;;;;;;4.18;1.80;;;;;;;;;;4771616;30;20079;-74
2022/09/18 14:07:31;;;;;;;4.18;1.90;;;;;;;;;;4769816;30;20058;-74
2022/09/18 14:09:58;;;;;;;3.30;1.73;;;;;;;;;;4770803;30;20083;-75
2022/09/18 14:12:26;;;;;;;2.60;1.52;;;;;;;;;;4770305;30;20074;-75
2022/09/18 14:15:04;;;;;;;6.45;1.70;;;;;;;;;;4766860;30;20043;-74
2022/09/18 14:17:32;;;;;;;3.38;1.92;;;;;;;;;;4769029;30;20135;-74
2022/09/18 14:20:06;;;;;;;3.15;1.70;;;;;;;;;;4771081;30;20520;-74
2022/09/18 14:22:36;;;;;;;3.42;1.60;;;;;;;;;;4770557;30;20512;-74
2022/09/18 14:25:06;;;;;;;2.75;1.50;;;;;;;;;;4770685;30;20043;-74
2022/09/18 14:27:38;;;;;;;1.88;1.55;;;;;;;;;;4770741;30;20039;-74
2022/09/18 14:30:25;;;;;;;2.22;1.50;;;;;;;;;;4770702;30;20081;-74
2022/09/18 14:33:05;;;;;;;3.53;1.70;;;;;;;;;;4770096;30;20087;-74
2022/09/18 14:35:46;;;;;;;2.40;1.57;;;;;;;;;;4769479;30;20049;-75
2022/09/18 14:38:36;;;;;;;3.25;1.83;;;;;;;;;;4770754;30;20051;-75
2022/09/18 14:41:07;;;;;;;4.57;2.40;;;;;;;;;;4774802;29;20134;-74
2022/09/18 14:43:35;;;;;;;4.55;2.03;;;;;;;;;;4769646;30;20046;-76
2022/09/18 14:46:02;;;;;;;3.28;1.85;;;;;;;;;;4769371;30;20527;-76
2022/09/18 14:48:35;;;;;;;3.58;1.85;;;;;;;;;;4769786;30;20049;-76
2022/09/18 14:51:15;;;;;;;3.78;1.92;;;;;;;;;;4769640;30;20064;-73
2022/09/18 14:53:43;;;;;;;2.40;1.55;;;;;;;;;;4770309;30;20090;-71
2022/09/18 14:56:11;;;;;;;4.70;1.33;;;;;;;;;;4769808;30;20082;-72
2022/09/18 14:58:39;;;;;;;3.05;1.42;;;;;;;;;;4770537;30;20076;-73
2022/09/18 15:01:06;;;;;;;3.15;1.52;;;;;;;;;;4770377;30;20078;-73